createdAt,value
2023-04-07T00:03:50.173Z,12.67
2023-04-07T00:07:56.852Z,14.50
2023-04-07T00:11:57.693Z,17.30
2023-04-07T00:15:58.054Z,16.87
2023-04-07T00:19:58.336Z,16.40
2023-04-07T00:24:01.225Z,17.60
2023-04-07T00:28:01.409Z,18.93
2023-04-07T00:32:01.773Z,19.70
2023-04-07T00:36:02.367Z,20.37
2023-04-07T00:40:05.342Z,17.83
2023-04-07T00:44:06.057Z,14.03
2023-04-07T00:48:07.059Z,14.53
2023-04-07T00:52:08.754Z,11.53
2023-04-07T00:56:11.967Z,12.00
2023-04-07T01:00:14.136Z,10.17
2023-04-07T01:04:29.738Z,9.53
2023-04-07T01:08:41.459Z,10.20
2023-04-07T01:12:55.872Z,10.53
2023-04-07T01:17:01.108Z,14.60
2023-04-07T01:21:09.455Z,13.13
2023-04-07T01:25:41.754Z,12.00
2023-04-07T01:29:50.795Z,12.77
2023-04-07T01:33:54.171Z,12.57
2023-04-07T01:37:58.242Z,11.33
2023-04-07T01:42:02.660Z,12.73
2023-04-07T01:46:07.593Z,12.50
2023-04-07T01:50:10.386Z,10.83
2023-04-07T01:54:12.489Z,12.80
2023-04-07T01:58:12.822Z,9.47
2023-04-07T02:02:18.858Z,11.13
2023-04-07T02:06:25.224Z,10.13
2023-04-07T02:10:29.986Z,11.83
2023-04-07T02:14:33.257Z,11.03
2023-04-07T02:18:41.943Z,10.37
2023-04-07T02:22:45.086Z,9.60
2023-04-07T02:26:46.396Z,11.03
2023-04-07T02:30:46.990Z,11.50
2023-04-07T02:34:49.793Z,11.03
2023-04-07T02:38:50.032Z,13.00
2023-04-07T02:42:50.504Z,10.40
2023-04-07T02:46:50.645Z,15.00
2023-04-07T02:50:53.563Z,10.73
2023-04-07T02:54:54.063Z,11.77
2023-04-07T02:58:58.254Z,10.43
2023-04-07T03:02:59.320Z,11.97
2023-04-07T03:07:05.014Z,10.00
2023-04-07T03:11:06.588Z,10.30
2023-04-07T03:15:08.102Z,12.27
2023-04-07T03:19:09.153Z,10.27
2023-04-07T03:23:16.252Z,11.17
2023-04-07T03:27:17.657Z,11.43
2023-04-07T03:31:20.580Z,13.23
2023-04-07T03:35:23.935Z,16.60
2023-04-07T03:39:27.038Z,14.67
2023-04-07T03:43:31.278Z,10.90
2023-04-07T03:47:31.832Z,13.00
2023-04-07T03:51:35.215Z,13.60
2023-04-07T03:55:42.003Z,11.80
2023-04-07T03:59:51.488Z,11.90
2023-04-07T04:03:53.587Z,11.53
2023-04-07T04:07:59.836Z,13.20
2023-04-07T04:12:04.092Z,11.30
2023-04-07T04:16:05.606Z,13.73
2023-04-07T04:20:07.953Z,15.07
2023-04-07T04:24:21.392Z,12.53
2023-04-07T04:28:25.083Z,12.70
2023-04-07T04:32:25.643Z,12.60
2023-04-07T04:36:26.549Z,14.63
2023-04-07T04:40:31.985Z,15.30
2023-04-07T04:44:35.533Z,13.37
2023-04-07T04:48:37.379Z,12.57
2023-04-07T04:52:40.802Z,13.37
2023-04-07T04:56:45.832Z,17.67
2023-04-07T05:00:48.763Z,16.30
2023-04-07T05:04:49.170Z,14.53
2023-04-07T05:08:58.809Z,12.83
2023-04-07T05:13:04.850Z,11.73
2023-04-07T05:17:07.738Z,12.70
2023-04-07T05:21:08.479Z,16.97
2023-04-07T05:25:12.470Z,13.63
2023-04-07T05:29:15.425Z,17.37
2023-04-07T05:33:18.471Z,14.80
2023-04-07T05:37:23.109Z,15.70
2023-04-07T05:41:23.972Z,14.53
2023-04-07T05:45:24.682Z,16.97
2023-04-07T05:49:27.958Z,12.80
2023-04-07T05:53:41.046Z,13.80
2023-04-07T05:57:42.437Z,12.63
2023-04-07T06:01:48.713Z,15.73
2023-04-07T06:05:52.695Z,19.50
2023-04-07T06:09:54.723Z,14.20
2023-04-07T06:13:54.953Z,12.97
2023-04-07T06:17:56.370Z,14.17
2023-04-07T06:22:00.792Z,13.93
2023-04-07T06:26:01.202Z,17.00
2023-04-07T06:30:03.144Z,17.50
2023-04-07T06:34:03.496Z,13.73
2023-04-07T06:38:06.550Z,18.00
2023-04-07T06:42:06.862Z,16.70
2023-04-07T06:46:12.367Z,16.43
2023-04-07T06:50:13.492Z,17.50
2023-04-07T06:54:16.471Z,17.23
2023-04-07T06:58:16.722Z,17.20
2023-04-07T07:02:17.002Z,15.17
2023-04-07T07:06:17.343Z,16.50
2023-04-07T07:10:20.728Z,15.20
2023-04-07T07:14:21.004Z,15.23
2023-04-07T07:18:22.329Z,16.23
2023-04-07T07:22:22.626Z,14.43
2023-04-07T07:26:26.499Z,13.83
2023-04-07T07:30:28.026Z,14.30
2023-04-07T07:34:28.402Z,15.83
2023-04-07T07:38:28.705Z,14.60
2023-04-07T07:42:32.613Z,13.33
2023-04-07T07:46:32.854Z,12.07
2023-04-07T07:50:33.446Z,19.13
2023-04-07T07:54:33.687Z,14.27
2023-04-07T07:58:36.734Z,13.07
2023-04-07T08:02:37.776Z,17.17
2023-04-07T08:06:38.298Z,17.23
2023-04-07T08:10:38.615Z,16.90
2023-04-07T08:14:41.510Z,12.20
2023-04-07T08:18:41.779Z,14.53
2023-04-07T08:22:43.259Z,13.97
2023-04-07T08:26:43.620Z,11.07
2023-04-07T08:30:46.628Z,13.80
2023-04-07T08:34:47.075Z,13.63
2023-04-07T08:38:47.225Z,12.20
2023-04-07T08:42:52.962Z,12.98
2023-04-07T08:47:01.040Z,13.18
2023-04-07T08:51:04.532Z,11.70
2023-04-07T08:55:07.171Z,13.85
2023-04-07T08:59:09.884Z,14.23
2023-04-07T09:03:14.177Z,17.15
2023-04-07T09:07:14.456Z,14.45
2023-04-07T09:22:01.153Z,15.93
2023-04-07T09:26:06.452Z,17.75
2023-04-07T09:30:16.475Z,16.25
2023-04-07T09:34:30.329Z,16.02
2023-04-07T09:38:44.649Z,16.00
2023-04-07T09:42:51.103Z,13.95
2023-04-07T09:46:56.653Z,22.70
2023-04-07T09:51:10.207Z,14.88
2023-04-07T09:55:14.995Z,16.58
2023-04-07T09:59:19.540Z,14.80
2023-04-07T10:03:21.304Z,16.00
2023-04-07T10:07:24.832Z,17.13
2023-04-07T10:11:35.738Z,15.32
2023-04-07T10:15:40.201Z,13.95
2023-04-07T10:19:42.187Z,14.15
2023-04-07T10:23:59.470Z,13.40
2023-04-07T10:28:09.840Z,16.63
2023-04-07T10:32:12.314Z,16.13
2023-04-07T10:36:13.064Z,16.65
2023-04-07T10:40:32.872Z,14.50
2023-04-07T10:44:54.916Z,16.52
2023-04-07T10:49:15.130Z,15.15
2023-04-07T10:53:19.031Z,14.70
2023-04-07T10:57:21.580Z,13.30
2023-04-07T11:01:25.310Z,12.98
2023-04-07T11:05:27.926Z,16.35
2023-04-07T11:09:28.378Z,13.50
2023-04-07T11:13:32.713Z,13.35
2023-04-07T11:17:37.881Z,14.70
2023-04-07T11:21:39.070Z,15.20
2023-04-07T11:25:41.965Z,13.25
2023-04-07T11:29:44.374Z,14.85
2023-04-07T11:33:57.857Z,14.48
2023-04-07T11:38:03.740Z,13.75
2023-04-07T11:42:06.960Z,13.48
2023-04-07T11:46:10.194Z,13.13
2023-04-07T11:50:15.154Z,14.55
2023-04-07T11:54:17.775Z,13.10
2023-04-07T11:58:20.248Z,12.68
2023-04-07T12:02:37.813Z,13.80
2023-04-07T12:06:42.801Z,13.05
2023-04-07T12:10:45.016Z,12.57
2023-04-07T12:14:45.534Z,13.30
2023-04-07T12:18:48.712Z,13.93
2023-04-07T12:22:51.749Z,14.52
2023-04-07T12:26:53.225Z,14.23
2023-04-07T12:30:54.168Z,11.80
2023-04-07T12:34:55.772Z,12.70
2023-04-07T12:39:01.475Z,12.32
2023-04-07T12:43:03.945Z,13.18
2023-04-07T12:47:06.890Z,13.13
2023-04-07T12:51:08.191Z,12.18
2023-04-07T12:55:15.238Z,11.77
2023-04-07T12:59:17.209Z,10.13
2023-04-07T13:03:18.100Z,10.77
2023-04-07T13:07:20.102Z,11.98
2023-04-07T13:11:24.881Z,13.32
2023-04-07T13:15:26.638Z,12.98
2023-04-07T13:19:30.436Z,10.80
2023-04-07T13:23:53.517Z,11.02
2023-04-07T13:27:56.720Z,10.55
2023-04-07T13:32:09.972Z,10.20
2023-04-07T13:36:10.992Z,9.85
2023-04-07T13:40:12.910Z,9.77
2023-04-07T13:44:15.658Z,10.80
2023-04-07T13:48:17.562Z,9.52
2023-04-07T13:52:20.228Z,10.48
2023-04-07T13:56:27.318Z,9.73
2023-04-07T14:00:36.048Z,10.10
2023-04-07T14:04:37.774Z,10.25
2023-04-07T14:08:40.184Z,13.75
2023-04-07T14:12:44.321Z,7.93
2023-04-07T14:16:48.552Z,8.13
2023-04-07T14:20:52.679Z,9.32
2023-04-07T14:24:57.799Z,9.70
2023-04-07T14:29:00.825Z,9.10
2023-04-07T14:33:10.263Z,9.95
2023-04-07T14:37:12.371Z,8.13
2023-04-07T14:41:15.606Z,8.40
2023-04-07T14:45:17.114Z,10.73
2023-04-07T14:49:23.338Z,8.20
2023-04-07T14:53:33.541Z,8.70
2023-04-07T14:57:40.005Z,8.13
2023-04-07T15:01:43.415Z,8.95
2023-04-07T15:05:52.527Z,8.50
2023-04-07T15:09:52.987Z,9.52
2023-04-07T15:13:53.323Z,10.52
2023-04-07T15:17:53.570Z,9.00
2023-04-07T15:21:56.753Z,9.07
2023-04-07T15:25:58.073Z,9.15
2023-04-07T15:29:58.916Z,8.23
2023-04-07T15:33:59.073Z,7.75
2023-04-07T15:38:01.855Z,8.23
2023-04-07T15:42:02.179Z,9.10
2023-04-07T15:46:02.638Z,7.10
2023-04-07T15:50:02.918Z,8.05
2023-04-07T15:54:05.989Z,7.07
2023-04-07T15:58:08.570Z,13.35
2023-04-07T16:02:09.211Z,8.20
2023-04-07T16:06:09.449Z,7.47
2023-04-07T16:10:14.029Z,5.93
2023-04-07T16:14:14.385Z,7.40
2023-04-07T16:18:14.905Z,6.47
2023-04-07T16:22:15.065Z,7.28
2023-04-07T16:26:17.759Z,7.32
2023-04-07T16:30:19.023Z,8.10
2023-04-07T16:34:19.286Z,6.63
2023-04-07T16:38:19.714Z,7.00
2023-04-07T16:42:22.469Z,8.20
2023-04-07T16:46:26.062Z,10.05
2023-04-07T16:50:26.439Z,6.93
2023-04-07T16:54:26.703Z,8.82
2023-04-07T16:58:29.530Z,6.60
2023-04-07T17:02:30.089Z,8.02
2023-04-07T17:06:30.540Z,6.82
2023-04-07T17:10:31.133Z,6.30
2023-04-07T17:14:34.008Z,7.50
2023-04-07T17:18:36.189Z,8.40
2023-04-07T17:22:36.634Z,8.45
2023-04-07T17:26:37.037Z,9.75
2023-04-07T17:30:40.243Z,6.60
2023-04-07T17:34:41.234Z,7.60
2023-04-07T17:38:41.585Z,7.43
2023-04-07T17:42:42.061Z,9.57
2023-04-07T17:46:44.935Z,7.23
2023-04-07T17:50:46.058Z,6.07
2023-04-07T17:54:46.423Z,7.00
2023-04-07T17:58:47.444Z,6.10
2023-04-07T18:02:50.429Z,5.80
2023-04-07T18:06:51.361Z,7.93
2023-04-07T18:10:51.793Z,7.17
2023-04-07T18:14:52.295Z,32.00
2023-04-07T18:18:55.511Z,15.83
2023-04-07T18:22:55.945Z,17.93
2023-04-07T18:26:56.958Z,14.93
2023-04-07T18:31:04.299Z,13.30
2023-04-07T18:35:08.174Z,17.67
2023-04-07T18:39:08.448Z,17.20
2023-04-07T18:43:08.641Z,14.13
2023-04-07T18:47:08.816Z,11.60
2023-04-07T18:51:12.080Z,12.80
2023-04-07T18:55:14.164Z,12.00
2023-04-07T18:59:14.834Z,16.93
2023-04-07T19:03:16.454Z,16.63
2023-04-07T19:07:19.605Z,16.57
2023-04-07T19:11:20.659Z,17.47
2023-04-07T19:15:21.607Z,14.43
2023-04-07T19:19:21.972Z,10.17
2023-04-07T19:23:25.590Z,11.43
2023-04-07T19:27:27.442Z,28.27
2023-04-07T19:31:28.228Z,25.17
2023-04-07T19:35:28.728Z,28.70
2023-04-07T19:39:31.916Z,12.27
2023-04-07T19:43:32.221Z,11.40
2023-04-07T19:47:32.595Z,12.07
2023-04-07T19:51:33.225Z,11.53
2023-04-07T19:55:36.171Z,14.10
2023-04-07T20:17:29.840Z,15.20
2023-04-07T20:27:17.392Z,14.30
2023-04-07T20:40:34.716Z,16.57
2023-04-07T20:54:56.807Z,19.07
2023-04-07T21:04:24.787Z,14.87
2023-04-07T21:09:03.245Z,12.77
2023-04-07T21:18:49.627Z,25.10
2023-04-07T21:29:00.650Z,27.10
2023-04-07T21:43:00.791Z,22.93
2023-04-07T21:47:32.396Z,17.77
2023-04-07T21:52:03.977Z,19.80
2023-04-07T21:56:33.985Z,21.03
2023-04-07T22:05:40.713Z,15.03
2023-04-07T22:09:41.493Z,14.27
2023-04-07T22:13:48.670Z,15.93
2023-04-07T22:17:48.922Z,14.27
2023-04-07T22:21:52.212Z,11.83
2023-04-07T22:25:52.832Z,12.33
2023-04-07T22:29:53.033Z,13.30
2023-04-07T22:33:53.207Z,15.43
2023-04-07T22:37:56.005Z,16.27
2023-04-07T22:41:56.378Z,11.10
2023-04-07T22:45:56.853Z,12.27
2023-04-07T22:49:57.694Z,10.97
2023-04-07T22:54:00.654Z,10.93
2023-04-07T22:58:00.999Z,11.37
2023-04-07T23:02:01.304Z,10.63
2023-04-07T23:06:02.811Z,10.13
2023-04-07T23:10:06.532Z,10.53
2023-04-07T23:14:07.705Z,11.30
2023-04-07T23:18:07.943Z,11.67
2023-04-07T23:22:08.102Z,10.40
2023-04-07T23:26:10.926Z,10.90
2023-04-07T23:30:13.187Z,11.13
2023-04-07T23:34:13.699Z,9.97
2023-04-07T23:38:13.835Z,12.60
2023-04-07T23:42:18.140Z,12.53
2023-04-07T23:46:19.217Z,11.83
2023-04-07T23:50:19.984Z,10.77
2023-04-07T23:54:20.136Z,14.07
2023-04-07T23:58:22.864Z,10.47
